sensor_id;sensor_type;location;lat;lon;timestamp;P1;durP1;ratioP1;P2;durP2;ratioP2
52776;SDS011;38656;54.260;20.822;2022-10-16T00:01:28;35.33;;;31.67;;
52776;SDS011;38656;54.260;20.822;2022-10-16T00:03:55;35.72;;;32.17;;
52776;SDS011;38656;54.260;20.822;2022-10-16T00:06:21;34.92;;;31.75;;
52776;SDS011;38656;54.260;20.822;2022-10-16T00:08:48;36.63;;;33.15;;
52776;SDS011;38656;54.260;20.822;2022-10-16T00:11:19;38.03;;;34.63;;
52776;SDS011;38656;54.260;20.822;2022-10-16T00:13:45;36.33;;;33.03;;
52776;SDS011;38656;54.260;20.822;2022-10-16T00:16:12;36.03;;;32.78;;
52776;SDS011;38656;54.260;20.822;2022-10-16T00:18:38;34.83;;;31.63;;
52776;SDS011;38656;54.260;20.822;2022-10-16T00:21:06;35.63;;;32.30;;
52776;SDS011;38656;54.260;20.822;2022-10-16T00:23:33;35.67;;;32.38;;
52776;SDS011;38656;54.260;20.822;2022-10-16T00:26:04;35.08;;;31.83;;
52776;SDS011;38656;54.260;20.822;2022-10-16T00:28:31;34.90;;;31.77;;
52776;SDS011;38656;54.260;20.822;2022-10-16T00:30:57;38.72;;;32.78;;
52776;SDS011;38656;54.260;20.822;2022-10-16T00:33:23;37.35;;;34.03;;
52776;SDS011;38656;54.260;20.822;2022-10-16T00:35:49;44.83;;;34.30;;
52776;SDS011;38656;54.260;20.822;2022-10-16T00:38:15;36.13;;;32.72;;
52776;SDS011;38656;54.260;20.822;2022-10-16T00:40:42;38.97;;;35.58;;
52776;SDS011;38656;54.260;20.822;2022-10-16T00:43:54;38.97;;;35.05;;
52776;SDS011;38656;54.260;20.822;2022-10-16T00:45:54;39.75;;;36.00;;
52776;SDS011;38656;54.260;20.822;2022-10-16T00:48:20;37.95;;;34.72;;
52776;SDS011;38656;54.260;20.822;2022-10-16T00:50:46;38.35;;;34.42;;
52776;SDS011;38656;54.260;20.822;2022-10-16T00:53:12;38.22;;;34.92;;
52776;SDS011;38656;54.260;20.822;2022-10-16T00:55:38;37.15;;;33.55;;
52776;SDS011;38656;54.260;20.822;2022-10-16T00:58:04;38.88;;;35.22;;
52776;SDS011;38656;54.260;20.822;2022-10-16T01:00:30;38.15;;;34.65;;
52776;SDS011;38656;54.260;20.822;2022-10-16T01:03:00;37.88;;;34.05;;
52776;SDS011;38656;54.260;20.822;2022-10-16T01:05:39;38.70;;;35.28;;
52776;SDS011;38656;54.260;20.822;2022-10-16T01:08:15;36.45;;;33.03;;
52776;SDS011;38656;54.260;20.822;2022-10-16T01:10:50;35.80;;;32.50;;
52776;SDS011;38656;54.260;20.822;2022-10-16T01:13:21;37.45;;;33.95;;
52776;SDS011;38656;54.260;20.822;2022-10-16T01:18:18;37.53;;;34.20;;
52776;SDS011;38656;54.260;20.822;2022-10-16T01:20:50;36.53;;;33.40;;
52776;SDS011;38656;54.260;20.822;2022-10-16T01:29:09;36.85;;;33.63;;
52776;SDS011;38656;54.260;20.822;2022-10-16T01:31:38;36.92;;;33.65;;
52776;SDS011;38656;54.260;20.822;2022-10-16T01:34:05;37.70;;;34.30;;
52776;SDS011;38656;54.260;20.822;2022-10-16T01:36:37;37.40;;;33.92;;
52776;SDS011;38656;54.260;20.822;2022-10-16T01:39:04;42.30;;;35.85;;
52776;SDS011;38656;54.260;20.822;2022-10-16T01:41:33;37.08;;;33.80;;
52776;SDS011;38656;54.260;20.822;2022-10-16T01:44:02;38.70;;;35.10;;
52776;SDS011;38656;54.260;20.822;2022-10-16T01:46:28;38.00;;;34.28;;
52776;SDS011;38656;54.260;20.822;2022-10-16T01:48:56;35.10;;;31.85;;
52776;SDS011;38656;54.260;20.822;2022-10-16T01:51:23;35.42;;;32.30;;
52776;SDS011;38656;54.260;20.822;2022-10-16T01:53:52;35.08;;;32.05;;
52776;SDS011;38656;54.260;20.822;2022-10-16T01:56:18;39.33;;;32.92;;
52776;SDS011;38656;54.260;20.822;2022-10-16T01:58:49;39.65;;;36.03;;
52776;SDS011;38656;54.260;20.822;2022-10-16T02:01:16;38.83;;;35.20;;
52776;SDS011;38656;54.260;20.822;2022-10-16T02:03:44;38.78;;;35.45;;
52776;SDS011;38656;54.260;20.822;2022-10-16T02:06:11;36.53;;;33.38;;
52776;SDS011;38656;54.260;20.822;2022-10-16T02:08:37;37.05;;;33.88;;
52776;SDS011;38656;54.260;20.822;2022-10-16T02:11:05;37.22;;;33.72;;
52776;SDS011;38656;54.260;20.822;2022-10-16T02:13:39;38.67;;;35.30;;
52776;SDS011;38656;54.260;20.822;2022-10-16T02:16:05;38.33;;;34.80;;
52776;SDS011;38656;54.260;20.822;2022-10-16T02:18:32;41.67;;;37.65;;
52776;SDS011;38656;54.260;20.822;2022-10-16T02:21:13;42.35;;;38.40;;
52776;SDS011;38656;54.260;20.822;2022-10-16T02:26:12;41.55;;;37.67;;
52776;SDS011;38656;54.260;20.822;2022-10-16T02:28:42;41.08;;;37.05;;
52776;SDS011;38656;54.260;20.822;2022-10-16T02:31:11;41.13;;;37.35;;
52776;SDS011;38656;54.260;20.822;2022-10-16T02:33:38;43.78;;;39.35;;
52776;SDS011;38656;54.260;20.822;2022-10-16T02:36:06;44.42;;;40.22;;
52776;SDS011;38656;54.260;20.822;2022-10-16T02:38:33;43.22;;;39.35;;
52776;SDS011;38656;54.260;20.822;2022-10-16T02:40:59;44.97;;;40.10;;
52776;SDS011;38656;54.260;20.822;2022-10-16T02:43:25;45.58;;;40.95;;
52776;SDS011;38656;54.260;20.822;2022-10-16T02:45:51;47.45;;;43.05;;
52776;SDS011;38656;54.260;20.822;2022-10-16T02:48:17;50.65;;;46.10;;
52776;SDS011;38656;54.260;20.822;2022-10-16T02:50:43;47.28;;;42.72;;
52776;SDS011;38656;54.260;20.822;2022-10-16T02:53:09;49.95;;;45.13;;
52776;SDS011;38656;54.260;20.822;2022-10-16T02:55:35;50.05;;;44.92;;
52776;SDS011;38656;54.260;20.822;2022-10-16T02:58:01;50.45;;;44.78;;
52776;SDS011;38656;54.260;20.822;2022-10-16T03:00:27;51.22;;;44.55;;
52776;SDS011;38656;54.260;20.822;2022-10-16T03:02:53;49.17;;;44.65;;
52776;SDS011;38656;54.260;20.822;2022-10-16T03:05:20;51.75;;;47.03;;
52776;SDS011;38656;54.260;20.822;2022-10-16T03:07:46;51.20;;;46.42;;
52776;SDS011;38656;54.260;20.822;2022-10-16T03:10:12;51.42;;;46.75;;
52776;SDS011;38656;54.260;20.822;2022-10-16T03:12:38;43.55;;;38.30;;
52776;SDS011;38656;54.260;20.822;2022-10-16T03:15:04;50.47;;;45.78;;
52776;SDS011;38656;54.260;20.822;2022-10-16T03:17:31;49.50;;;44.45;;
52776;SDS011;38656;54.260;20.822;2022-10-16T03:19:57;51.60;;;46.92;;
52776;SDS011;38656;54.260;20.822;2022-10-16T03:22:23;49.70;;;45.10;;
52776;SDS011;38656;54.260;20.822;2022-10-16T03:24:50;52.05;;;47.20;;
52776;SDS011;38656;54.260;20.822;2022-10-16T03:27:16;49.42;;;44.92;;
52776;SDS011;38656;54.260;20.822;2022-10-16T03:29:42;49.47;;;45.15;;
52776;SDS011;38656;54.260;20.822;2022-10-16T03:32:08;49.67;;;45.25;;
52776;SDS011;38656;54.260;20.822;2022-10-16T03:34:34;50.25;;;45.65;;
52776;SDS011;38656;54.260;20.822;2022-10-16T03:37:00;52.65;;;47.55;;
52776;SDS011;38656;54.260;20.822;2022-10-16T03:39:26;50.20;;;45.60;;
52776;SDS011;38656;54.260;20.822;2022-10-16T03:41:52;47.92;;;43.53;;
52776;SDS011;38656;54.260;20.822;2022-10-16T03:44:18;51.88;;;47.15;;
52776;SDS011;38656;54.260;20.822;2022-10-16T03:46:44;52.50;;;47.45;;
52776;SDS011;38656;54.260;20.822;2022-10-16T03:49:10;53.03;;;48.13;;
52776;SDS011;38656;54.260;20.822;2022-10-16T03:51:36;53.47;;;48.58;;
52776;SDS011;38656;54.260;20.822;2022-10-16T03:54:02;49.47;;;44.53;;
52776;SDS011;38656;54.260;20.822;2022-10-16T03:56:28;52.13;;;47.35;;
52776;SDS011;38656;54.260;20.822;2022-10-16T03:58:54;53.28;;;48.53;;
52776;SDS011;38656;54.260;20.822;2022-10-16T04:01:20;52.05;;;47.45;;
52776;SDS011;38656;54.260;20.822;2022-10-16T04:03:46;51.13;;;46.33;;
52776;SDS011;38656;54.260;20.822;2022-10-16T04:06:12;54.90;;;49.85;;
52776;SDS011;38656;54.260;20.822;2022-10-16T04:08:38;53.75;;;48.25;;
52776;SDS011;38656;54.260;20.822;2022-10-16T04:11:04;48.70;;;44.22;;
52776;SDS011;38656;54.260;20.822;2022-10-16T04:13:30;52.05;;;47.50;;
52776;SDS011;38656;54.260;20.822;2022-10-16T04:15:56;53.67;;;48.75;;
52776;SDS011;38656;54.260;20.822;2022-10-16T04:18:22;50.30;;;45.88;;
52776;SDS011;38656;54.260;20.822;2022-10-16T04:20:52;50.63;;;46.00;;
52776;SDS011;38656;54.260;20.822;2022-10-16T04:23:18;53.70;;;48.25;;
52776;SDS011;38656;54.260;20.822;2022-10-16T04:25:44;53.15;;;48.20;;
52776;SDS011;38656;54.260;20.822;2022-10-16T04:28:10;52.95;;;47.85;;
52776;SDS011;38656;54.260;20.822;2022-10-16T04:30:37;54.00;;;49.10;;
52776;SDS011;38656;54.260;20.822;2022-10-16T04:33:04;53.47;;;48.50;;
52776;SDS011;38656;54.260;20.822;2022-10-16T04:35:30;52.42;;;47.65;;
52776;SDS011;38656;54.260;20.822;2022-10-16T04:37:59;51.50;;;46.80;;
52776;SDS011;38656;54.260;20.822;2022-10-16T04:40:25;51.60;;;46.63;;
52776;SDS011;38656;54.260;20.822;2022-10-16T04:42:51;51.95;;;47.28;;
52776;SDS011;38656;54.260;20.822;2022-10-16T04:45:17;50.10;;;45.25;;
52776;SDS011;38656;54.260;20.822;2022-10-16T04:47:43;51.92;;;46.60;;
52776;SDS011;38656;54.260;20.822;2022-10-16T04:50:09;53.33;;;48.03;;
52776;SDS011;38656;54.260;20.822;2022-10-16T04:52:35;52.58;;;48.17;;
52776;SDS011;38656;54.260;20.822;2022-10-16T04:55:01;49.50;;;45.10;;
52776;SDS011;38656;54.260;20.822;2022-10-16T04:57:28;50.50;;;45.83;;
52776;SDS011;38656;54.260;20.822;2022-10-16T04:59:54;50.92;;;45.90;;
52776;SDS011;38656;54.260;20.822;2022-10-16T05:02:20;51.30;;;46.63;;
52776;SDS011;38656;54.260;20.822;2022-10-16T05:04:46;50.22;;;45.80;;
52776;SDS011;38656;54.260;20.822;2022-10-16T05:07:12;50.20;;;45.72;;
52776;SDS011;38656;54.260;20.822;2022-10-16T05:09:38;49.03;;;44.60;;
52776;SDS011;38656;54.260;20.822;2022-10-16T05:12:04;50.72;;;46.03;;
52776;SDS011;38656;54.260;20.822;2022-10-16T05:14:30;51.25;;;46.42;;
52776;SDS011;38656;54.260;20.822;2022-10-16T05:16:56;49.95;;;45.08;;
52776;SDS011;38656;54.260;20.822;2022-10-16T05:19:23;50.92;;;46.47;;
52776;SDS011;38656;54.260;20.822;2022-10-16T05:21:49;48.97;;;44.35;;
52776;SDS011;38656;54.260;20.822;2022-10-16T05:24:16;51.13;;;46.13;;
52776;SDS011;38656;54.260;20.822;2022-10-16T05:26:42;48.65;;;44.17;;
52776;SDS011;38656;54.260;20.822;2022-10-16T05:29:08;49.90;;;45.10;;
52776;SDS011;38656;54.260;20.822;2022-10-16T05:31:34;47.20;;;42.88;;
52776;SDS011;38656;54.260;20.822;2022-10-16T05:34:00;46.38;;;42.20;;
52776;SDS011;38656;54.260;20.822;2022-10-16T05:36:27;45.72;;;41.75;;
52776;SDS011;38656;54.260;20.822;2022-10-16T05:38:53;44.35;;;40.35;;
52776;SDS011;38656;54.260;20.822;2022-10-16T05:41:19;44.08;;;40.13;;
52776;SDS011;38656;54.260;20.822;2022-10-16T05:43:49;41.30;;;37.47;;
52776;SDS011;38656;54.260;20.822;2022-10-16T05:46:16;45.03;;;40.75;;
52776;SDS011;38656;54.260;20.822;2022-10-16T05:48:42;45.65;;;40.92;;
52776;SDS011;38656;54.260;20.822;2022-10-16T05:51:09;43.58;;;39.97;;
52776;SDS011;38656;54.260;20.822;2022-10-16T05:53:36;38.75;;;35.47;;
52776;SDS011;38656;54.260;20.822;2022-10-16T05:56:02;41.17;;;37.65;;
52776;SDS011;38656;54.260;20.822;2022-10-16T05:58:32;42.05;;;38.08;;
52776;SDS011;38656;54.260;20.822;2022-10-16T06:01:00;42.40;;;38.35;;
52776;SDS011;38656;54.260;20.822;2022-10-16T06:03:26;38.13;;;34.92;;
52776;SDS011;38656;54.260;20.822;2022-10-16T06:05:52;38.85;;;35.47;;
52776;SDS011;38656;54.260;20.822;2022-10-16T06:08:19;37.90;;;34.25;;
52776;SDS011;38656;54.260;20.822;2022-10-16T06:10:45;38.85;;;35.33;;
52776;SDS011;38656;54.260;20.822;2022-10-16T06:13:12;38.00;;;34.58;;
52776;SDS011;38656;54.260;20.822;2022-10-16T06:15:38;38.60;;;34.80;;
52776;SDS011;38656;54.260;20.822;2022-10-16T06:18:06;36.63;;;33.03;;
52776;SDS011;38656;54.260;20.822;2022-10-16T06:20:32;35.75;;;32.55;;
52776;SDS011;38656;54.260;20.822;2022-10-16T06:22:58;36.35;;;33.33;;
52776;SDS011;38656;54.260;20.822;2022-10-16T06:25:24;34.65;;;31.63;;
52776;SDS011;38656;54.260;20.822;2022-10-16T06:27:50;35.58;;;32.15;;
52776;SDS011;38656;54.260;20.822;2022-10-16T06:30:16;36.58;;;33.38;;
52776;SDS011;38656;54.260;20.822;2022-10-16T06:32:42;36.10;;;32.75;;
52776;SDS011;38656;54.260;20.822;2022-10-16T06:35:08;34.35;;;31.30;;
52776;SDS011;38656;54.260;20.822;2022-10-16T06:37:34;31.17;;;28.63;;
52776;SDS011;38656;54.260;20.822;2022-10-16T06:40:00;33.13;;;30.27;;
52776;SDS011;38656;54.260;20.822;2022-10-16T06:42:29;33.75;;;30.73;;
52776;SDS011;38656;54.260;20.822;2022-10-16T06:44:55;32.15;;;29.08;;
52776;SDS011;38656;54.260;20.822;2022-10-16T06:47:21;30.77;;;28.25;;
52776;SDS011;38656;54.260;20.822;2022-10-16T06:49:47;33.05;;;30.10;;
52776;SDS011;38656;54.260;20.822;2022-10-16T06:52:13;30.10;;;27.75;;
52776;SDS011;38656;54.260;20.822;2022-10-16T06:54:39;29.30;;;26.60;;
52776;SDS011;38656;54.260;20.822;2022-10-16T06:57:05;29.73;;;27.13;;
52776;SDS011;38656;54.260;20.822;2022-10-16T06:59:31;27.00;;;24.55;;
52776;SDS011;38656;54.260;20.822;2022-10-16T07:01:57;29.17;;;26.52;;
52776;SDS011;38656;54.260;20.822;2022-10-16T07:04:23;27.40;;;24.80;;
52776;SDS011;38656;54.260;20.822;2022-10-16T07:06:49;29.23;;;26.33;;
52776;SDS011;38656;54.260;20.822;2022-10-16T07:09:16;27.48;;;24.73;;
52776;SDS011;38656;54.260;20.822;2022-10-16T07:11:42;27.60;;;24.92;;
52776;SDS011;38656;54.260;20.822;2022-10-16T07:14:18;24.75;;;22.40;;
52776;SDS011;38656;54.260;20.822;2022-10-16T07:16:44;24.17;;;21.88;;
52776;SDS011;38656;54.260;20.822;2022-10-16T07:19:11;24.38;;;21.85;;
52776;SDS011;38656;54.260;20.822;2022-10-16T07:21:39;24.90;;;22.60;;
52776;SDS011;38656;54.260;20.822;2022-10-16T07:24:06;24.33;;;22.35;;
52776;SDS011;38656;54.260;20.822;2022-10-16T07:26:33;23.92;;;21.48;;
52776;SDS011;38656;54.260;20.822;2022-10-16T07:28:59;22.92;;;21.02;;
52776;SDS011;38656;54.260;20.822;2022-10-16T07:31:25;21.98;;;19.90;;
52776;SDS011;38656;54.260;20.822;2022-10-16T07:33:52;23.45;;;21.45;;
52776;SDS011;38656;54.260;20.822;2022-10-16T07:36:19;22.38;;;20.35;;
52776;SDS011;38656;54.260;20.822;2022-10-16T07:41:13;21.25;;;19.42;;
52776;SDS011;38656;54.260;20.822;2022-10-16T07:43:39;19.35;;;17.73;;
52776;SDS011;38656;54.260;20.822;2022-10-16T07:46:06;19.25;;;17.58;;
52776;SDS011;38656;54.260;20.822;2022-10-16T07:48:33;18.30;;;16.67;;
52776;SDS011;38656;54.260;20.822;2022-10-16T07:51:00;19.40;;;17.58;;
52776;SDS011;38656;54.260;20.822;2022-10-16T07:53:26;16.63;;;15.25;;
52776;SDS011;38656;54.260;20.822;2022-10-16T07:55:54;18.20;;;16.58;;
52776;SDS011;38656;54.260;20.822;2022-10-16T07:58:23;15.15;;;13.90;;
52776;SDS011;38656;54.260;20.822;2022-10-16T08:00:49;17.42;;;15.75;;
52776;SDS011;38656;54.260;20.822;2022-10-16T08:03:14;17.35;;;15.75;;
52776;SDS011;38656;54.260;20.822;2022-10-16T08:05:41;17.15;;;15.68;;
52776;SDS011;38656;54.260;20.822;2022-10-16T08:08:10;18.08;;;16.13;;
52776;SDS011;38656;54.260;20.822;2022-10-16T08:10:36;16.70;;;15.30;;
52776;SDS011;38656;54.260;20.822;2022-10-16T08:13:02;16.20;;;14.90;;
52776;SDS011;38656;54.260;20.822;2022-10-16T08:15:28;16.15;;;14.75;;
52776;SDS011;38656;54.260;20.822;2022-10-16T08:17:55;16.33;;;14.80;;
52776;SDS011;38656;54.260;20.822;2022-10-16T08:20:21;16.00;;;14.60;;
52776;SDS011;38656;54.260;20.822;2022-10-16T08:22:47;15.88;;;14.45;;
52776;SDS011;38656;54.260;20.822;2022-10-16T08:25:14;17.60;;;15.43;;
52776;SDS011;38656;54.260;20.822;2022-10-16T08:27:40;16.02;;;14.40;;
52776;SDS011;38656;54.260;20.822;2022-10-16T08:30:06;21.75;;;14.57;;
52776;SDS011;38656;54.260;20.822;2022-10-16T08:32:32;15.80;;;14.45;;
52776;SDS011;38656;54.260;20.822;2022-10-16T08:34:58;15.75;;;14.25;;
52776;SDS011;38656;54.260;20.822;2022-10-16T08:37:24;15.77;;;14.00;;
52776;SDS011;38656;54.260;20.822;2022-10-16T08:39:50;15.63;;;14.27;;
52776;SDS011;38656;54.260;20.822;2022-10-16T08:47:43;15.02;;;13.45;;
52776;SDS011;38656;54.260;20.822;2022-10-16T08:50:14;14.20;;;13.00;;
52776;SDS011;38656;54.260;20.822;2022-10-16T08:52:43;13.18;;;12.02;;
52776;SDS011;38656;54.260;20.822;2022-10-16T08:55:28;15.13;;;14.00;;
52776;SDS011;38656;54.260;20.822;2022-10-16T08:57:55;14.13;;;12.82;;
52776;SDS011;38656;54.260;20.822;2022-10-16T09:00:22;14.93;;;13.23;;
52776;SDS011;38656;54.260;20.822;2022-10-16T09:10:50;13.25;;;12.05;;
52776;SDS011;38656;54.260;20.822;2022-10-16T09:13:27;12.43;;;11.43;;
52776;SDS011;38656;54.260;20.822;2022-10-16T09:18:56;13.25;;;11.98;;
52776;SDS011;38656;54.260;20.822;2022-10-16T09:21:25;12.32;;;11.18;;
52776;SDS011;38656;54.260;20.822;2022-10-16T09:23:52;11.70;;;10.60;;
52776;SDS011;38656;54.260;20.822;2022-10-16T09:26:19;12.95;;;11.82;;
52776;SDS011;38656;54.260;20.822;2022-10-16T09:28:47;13.70;;;11.43;;
52776;SDS011;38656;54.260;20.822;2022-10-16T09:31:17;12.23;;;11.23;;
52776;SDS011;38656;54.260;20.822;2022-10-16T09:33:43;12.23;;;10.98;;
52776;SDS011;38656;54.260;20.822;2022-10-16T09:36:10;12.95;;;11.85;;
52776;SDS011;38656;54.260;20.822;2022-10-16T09:38:37;12.73;;;11.55;;
52776;SDS011;38656;54.260;20.822;2022-10-16T09:41:11;12.77;;;11.57;;
52776;SDS011;38656;54.260;20.822;2022-10-16T09:43:40;12.00;;;10.90;;
52776;SDS011;38656;54.260;20.822;2022-10-16T09:46:08;12.00;;;10.90;;
52776;SDS011;38656;54.260;20.822;2022-10-16T09:48:39;13.32;;;12.20;;
52776;SDS011;38656;54.260;20.822;2022-10-16T09:51:06;12.25;;;11.05;;
52776;SDS011;38656;54.260;20.822;2022-10-16T09:53:39;12.98;;;11.70;;
52776;SDS011;38656;54.260;20.822;2022-10-16T09:56:06;12.65;;;11.40;;
52776;SDS011;38656;54.260;20.822;2022-10-16T09:58:32;11.63;;;10.55;;
52776;SDS011;38656;54.260;20.822;2022-10-16T10:00:59;14.15;;;12.55;;
52776;SDS011;38656;54.260;20.822;2022-10-16T10:03:46;19.48;;;17.48;;
52776;SDS011;38656;54.260;20.822;2022-10-16T10:06:16;22.80;;;20.40;;
52776;SDS011;38656;54.260;20.822;2022-10-16T10:08:56;16.60;;;15.10;;
52776;SDS011;38656;54.260;20.822;2022-10-16T10:11:39;13.57;;;11.00;;
52776;SDS011;38656;54.260;20.822;2022-10-16T10:14:08;43.15;;;37.28;;
52776;SDS011;38656;54.260;20.822;2022-10-16T10:16:39;13.68;;;12.27;;
52776;SDS011;38656;54.260;20.822;2022-10-16T10:19:09;9.93;;;9.02;;
52776;SDS011;38656;54.260;20.822;2022-10-16T10:21:39;75.30;;;51.63;;
52776;SDS011;38656;54.260;20.822;2022-10-16T10:24:09;115.25;;;97.63;;
52776;SDS011;38656;54.260;20.822;2022-10-16T10:26:35;13.60;;;12.50;;
52776;SDS011;38656;54.260;20.822;2022-10-16T10:39:52;15.70;;;14.35;;
52776;SDS011;38656;54.260;20.822;2022-10-16T10:42:27;14.15;;;12.90;;
52776;SDS011;38656;54.260;20.822;2022-10-16T10:57:57;10.57;;;9.68;;
52776;SDS011;38656;54.260;20.822;2022-10-16T11:00:28;13.10;;;11.70;;
52776;SDS011;38656;54.260;20.822;2022-10-16T11:05:44;14.20;;;12.85;;
52776;SDS011;38656;54.260;20.822;2022-10-16T11:13:43;12.27;;;11.05;;
52776;SDS011;38656;54.260;20.822;2022-10-16T11:21:07;11.73;;;10.73;;
52776;SDS011;38656;54.260;20.822;2022-10-16T11:26:12;13.00;;;11.63;;
52776;SDS011;38656;54.260;20.822;2022-10-16T11:28:45;12.15;;;11.15;;
52776;SDS011;38656;54.260;20.822;2022-10-16T11:34:01;17.77;;;16.17;;
52776;SDS011;38656;54.260;20.822;2022-10-16T11:36:45;20.33;;;18.50;;
52776;SDS011;38656;54.260;20.822;2022-10-16T11:46:42;13.30;;;12.13;;
52776;SDS011;38656;54.260;20.822;2022-10-16T11:49:12;12.07;;;11.13;;
52776;SDS011;38656;54.260;20.822;2022-10-16T11:51:40;12.13;;;10.93;;
52776;SDS011;38656;54.260;20.822;2022-10-16T11:56:35;34.63;;;32.05;;
52776;SDS011;38656;54.260;20.822;2022-10-16T11:59:05;11.57;;;10.35;;
52776;SDS011;38656;54.260;20.822;2022-10-16T12:01:53;10.50;;;9.70;;
52776;SDS011;38656;54.260;20.822;2022-10-16T12:07:11;14.98;;;13.02;;
52776;SDS011;38656;54.260;20.822;2022-10-16T12:09:40;170.40;;;95.90;;
52776;SDS011;38656;54.260;20.822;2022-10-16T12:15:17;24.20;;;21.73;;
52776;SDS011;38656;54.260;20.822;2022-10-16T12:17:44;12.77;;;11.63;;
52776;SDS011;38656;54.260;20.822;2022-10-16T12:25:23;17.05;;;11.40;;
52776;SDS011;38656;54.260;20.822;2022-10-16T12:27:54;10.40;;;9.35;;
52776;SDS011;38656;54.260;20.822;2022-10-16T12:30:22;12.23;;;8.35;;
52776;SDS011;38656;54.260;20.822;2022-10-16T12:33:15;15.98;;;12.32;;
52776;SDS011;38656;54.260;20.822;2022-10-16T12:35:42;61.55;;;52.38;;
52776;SDS011;38656;54.260;20.822;2022-10-16T12:38:15;10.02;;;9.23;;
52776;SDS011;38656;54.260;20.822;2022-10-16T12:40:42;9.40;;;8.50;;
52776;SDS011;38656;54.260;20.822;2022-10-16T12:43:13;11.20;;;10.15;;
52776;SDS011;38656;54.260;20.822;2022-10-16T12:45:58;37.60;;;30.23;;
52776;SDS011;38656;54.260;20.822;2022-10-16T12:48:24;33.47;;;30.05;;
52776;SDS011;38656;54.260;20.822;2022-10-16T12:50:50;10.10;;;9.10;;
52776;SDS011;38656;54.260;20.822;2022-10-16T12:53:20;25.23;;;22.35;;
52776;SDS011;38656;54.260;20.822;2022-10-16T12:55:57;79.50;;;52.47;;
52776;SDS011;38656;54.260;20.822;2022-10-16T13:00:59;21.67;;;19.70;;
52776;SDS011;38656;54.260;20.822;2022-10-16T13:29:52;10.65;;;9.65;;
52776;SDS011;38656;54.260;20.822;2022-10-16T13:32:20;17.73;;;16.23;;
52776;SDS011;38656;54.260;20.822;2022-10-16T13:34:47;56.25;;;50.03;;
52776;SDS011;38656;54.260;20.822;2022-10-16T13:37:17;9.93;;;9.13;;
52776;SDS011;38656;54.260;20.822;2022-10-16T13:39:44;13.82;;;11.60;;
52776;SDS011;38656;54.260;20.822;2022-10-16T13:42:13;11.55;;;10.55;;
52776;SDS011;38656;54.260;20.822;2022-10-16T13:44:47;12.75;;;11.48;;
52776;SDS011;38656;54.260;20.822;2022-10-16T13:47:19;13.45;;;12.20;;
52776;SDS011;38656;54.260;20.822;2022-10-16T13:49:45;12.48;;;11.48;;
52776;SDS011;38656;54.260;20.822;2022-10-16T13:52:16;12.60;;;9.90;;
52776;SDS011;38656;54.260;20.822;2022-10-16T13:54:43;14.20;;;12.70;;
52776;SDS011;38656;54.260;20.822;2022-10-16T13:57:12;10.20;;;9.20;;
52776;SDS011;38656;54.260;20.822;2022-10-16T13:59:38;10.93;;;9.82;;
52776;SDS011;38656;54.260;20.822;2022-10-16T14:02:38;13.27;;;12.13;;
52776;SDS011;38656;54.260;20.822;2022-10-16T14:04:59;14.23;;;12.95;;
52776;SDS011;38656;54.260;20.822;2022-10-16T14:07:27;8.63;;;7.93;;
52776;SDS011;38656;54.260;20.822;2022-10-16T14:09:54;12.98;;;11.90;;
52776;SDS011;38656;54.260;20.822;2022-10-16T14:12:20;9.30;;;8.50;;
52776;SDS011;38656;54.260;20.822;2022-10-16T14:14:48;10.27;;;9.30;;
52776;SDS011;38656;54.260;20.822;2022-10-16T14:17:16;10.07;;;9.07;;
52776;SDS011;38656;54.260;20.822;2022-10-16T14:19:50;12.13;;;11.02;;
52776;SDS011;38656;54.260;20.822;2022-10-16T14:22:28;12.02;;;10.18;;
52776;SDS011;38656;54.260;20.822;2022-10-16T14:24:55;8.20;;;7.50;;
52776;SDS011;38656;54.260;20.822;2022-10-16T14:32:40;13.38;;;10.80;;
52776;SDS011;38656;54.260;20.822;2022-10-16T14:35:21;8.93;;;8.13;;
52776;SDS011;38656;54.260;20.822;2022-10-16T14:37:50;9.57;;;8.73;;
52776;SDS011;38656;54.260;20.822;2022-10-16T14:40:17;10.38;;;9.00;;
52776;SDS011;38656;54.260;20.822;2022-10-16T14:42:43;9.80;;;8.90;;
52776;SDS011;38656;54.260;20.822;2022-10-16T14:45:10;10.07;;;9.18;;
52776;SDS011;38656;54.260;20.822;2022-10-16T14:47:37;10.35;;;9.27;;
52776;SDS011;38656;54.260;20.822;2022-10-16T14:50:12;12.02;;;8.90;;
52776;SDS011;38656;54.260;20.822;2022-10-16T14:52:38;11.77;;;8.02;;
52776;SDS011;38656;54.260;20.822;2022-10-16T14:55:04;12.52;;;11.38;;
52776;SDS011;38656;54.260;20.822;2022-10-16T14:57:31;10.63;;;9.63;;
52776;SDS011;38656;54.260;20.822;2022-10-16T14:59:59;9.57;;;8.68;;
52776;SDS011;38656;54.260;20.822;2022-10-16T15:02:29;19.52;;;17.50;;
52776;SDS011;38656;54.260;20.822;2022-10-16T15:04:56;14.15;;;12.70;;
52776;SDS011;38656;54.260;20.822;2022-10-16T15:07:22;11.85;;;10.75;;
52776;SDS011;38656;54.260;20.822;2022-10-16T15:09:48;14.88;;;13.45;;
52776;SDS011;38656;54.260;20.822;2022-10-16T15:12:15;19.85;;;17.85;;
52776;SDS011;38656;54.260;20.822;2022-10-16T15:14:41;15.50;;;14.18;;
52776;SDS011;38656;54.260;20.822;2022-10-16T15:17:10;14.68;;;13.23;;
52776;SDS011;38656;54.260;20.822;2022-10-16T15:19:37;26.48;;;24.13;;
52776;SDS011;38656;54.260;20.822;2022-10-16T15:22:03;17.77;;;15.98;;
52776;SDS011;38656;54.260;20.822;2022-10-16T15:24:29;15.55;;;14.02;;
52776;SDS011;38656;54.260;20.822;2022-10-16T15:26:55;16.73;;;14.30;;
52776;SDS011;38656;54.260;20.822;2022-10-16T15:29:21;16.00;;;14.50;;
52776;SDS011;38656;54.260;20.822;2022-10-16T15:31:47;39.60;;;36.17;;
52776;SDS011;38656;54.260;20.822;2022-10-16T15:34:13;26.77;;;24.48;;
52776;SDS011;38656;54.260;20.822;2022-10-16T15:36:40;33.38;;;30.48;;
52776;SDS011;38656;54.260;20.822;2022-10-16T15:41:32;21.38;;;19.38;;
52776;SDS011;38656;54.260;20.822;2022-10-16T15:43:58;19.42;;;17.65;;
52776;SDS011;38656;54.260;20.822;2022-10-16T15:46:24;18.83;;;17.17;;
52776;SDS011;38656;54.260;20.822;2022-10-16T15:48:50;15.50;;;13.80;;
52776;SDS011;38656;54.260;20.822;2022-10-16T15:51:17;20.00;;;18.27;;
52776;SDS011;38656;54.260;20.822;2022-10-16T15:53:43;21.85;;;19.63;;
52776;SDS011;38656;54.260;20.822;2022-10-16T15:56:11;20.55;;;18.73;;
52776;SDS011;38656;54.260;20.822;2022-10-16T15:58:38;20.88;;;17.15;;
52776;SDS011;38656;54.260;20.822;2022-10-16T16:01:09;25.15;;;22.83;;
52776;SDS011;38656;54.260;20.822;2022-10-16T16:03:36;20.90;;;18.92;;
52776;SDS011;38656;54.260;20.822;2022-10-16T16:06:05;24.00;;;21.90;;
52776;SDS011;38656;54.260;20.822;2022-10-16T16:08:32;29.25;;;26.80;;
52776;SDS011;38656;54.260;20.822;2022-10-16T16:13:31;49.65;;;44.80;;
52776;SDS011;38656;54.260;20.822;2022-10-16T16:15:57;38.83;;;35.13;;
52776;SDS011;38656;54.260;20.822;2022-10-16T16:18:23;33.03;;;29.67;;
52776;SDS011;38656;54.260;20.822;2022-10-16T16:20:52;31.55;;;28.85;;
52776;SDS011;38656;54.260;20.822;2022-10-16T16:23:18;36.35;;;33.00;;
52776;SDS011;38656;54.260;20.822;2022-10-16T16:25:45;27.70;;;25.13;;
52776;SDS011;38656;54.260;20.822;2022-10-16T16:28:11;32.67;;;29.60;;